Time;durP1;ratioP1;P1;durP2;ratioP2;P2;SDS_P1;SDS_P2;PMS_P1;PMS_P2;Temp;Humidity;BMP_temperature;BMP_pressure;BME280_temperature;BME280_humidity;BME280_pressure;Samples;Min_cycle;Max_cycle;Signal;HPM_P1;HPM_P2
2022/01/17 00:00:52;;;;;;;19.00;5.38;;;5.40;99.90;;;;;;5087071;28;20044;-77
2022/01/17 00:03:18;;;;;;;47.05;4.80;;;5.40;99.90;;;;;;5068770;28;20051;-77
2022/01/17 00:05:43;;;;;;;23.05;4.43;;;5.50;99.90;;;;;;5087406;28;20413;-74
2022/01/17 00:08:09;;;;;;;15.50;2.92;;;5.40;99.90;;;;;;5069601;28;20044;-77
2022/01/17 00:10:34;;;;;;;14.82;3.92;;;5.40;99.90;;;;;;5068842;28;20047;-77
2022/01/17 00:13:00;;;;;;;16.77;3.75;;;5.50;99.90;;;;;;5068156;28;20048;-77
2022/01/17 00:15:41;;;;;;;23.45;3.55;;;5.50;99.90;;;;;;5069486;28;20044;-78
2022/01/17 00:18:25;;;;;;;24.40;4.38;;;5.50;99.90;;;;;;5056456;28;20153;-77
2022/01/17 00:20:50;;;;;;;48.97;4.57;;;5.40;99.90;;;;;;5072977;28;20047;-77
2022/01/17 00:23:17;;;;;;;23.52;4.00;;;5.40;99.90;;;;;;5090675;28;20048;-76
2022/01/17 00:25:42;;;;;;;12.85;2.67;;;5.40;99.90;;;;;;5072943;28;20028;-77
2022/01/17 00:28:08;;;;;;;17.13;3.15;;;5.40;99.90;;;;;;5071387;28;20040;-77
2022/01/17 00:30:34;;;;;;;13.57;3.30;;;5.40;99.90;;;;;;5090104;28;20402;-76
2022/01/17 00:33:00;;;;;;;16.17;3.90;;;5.40;99.90;;;;;;5090491;28;20048;-76
2022/01/17 00:35:25;;;;;;;17.98;4.80;;;5.40;99.90;;;;;;5072048;28;20039;-76
2022/01/17 00:37:52;;;;;;;26.52;4.88;;;5.40;99.90;;;;;;5072609;28;20043;-77
2022/01/17 00:40:18;;;;;;;28.90;4.65;;;5.40;99.90;;;;;;5090231;28;20039;-76
2022/01/17 00:42:44;;;;;;;29.83;5.63;;;5.40;99.90;;;;;;5089618;28;20040;-75
2022/01/17 00:45:13;;;;;;;20.27;3.40;;;5.40;99.90;;;;;;5055619;28;20067;-76
2022/01/17 00:47:39;;;;;;;24.90;5.05;;;5.30;99.90;;;;;;5072542;28;20055;-79
2022/01/17 00:50:06;;;;;;;20.30;3.35;;;5.20;99.90;;;;;;5071822;28;20052;-76
2022/01/17 00:52:31;;;;;;;22.00;4.75;;;5.30;99.90;;;;;;5089779;28;20122;-77
2022/01/17 00:54:57;;;;;;;16.20;4.45;;;5.30;99.90;;;;;;5090070;28;20060;-76
2022/01/17 00:57:23;;;;;;;29.35;5.68;;;5.30;99.90;;;;;;5070581;28;20471;-76
2022/01/17 00:59:48;;;;;;;13.80;3.78;;;5.30;99.90;;;;;;5071820;28;20150;-76
2022/01/17 01:02:14;;;;;;;29.25;4.60;;;5.30;99.90;;;;;;5090157;28;20047;-76
2022/01/17 01:04:40;;;;;;;12.95;3.22;;;5.30;99.90;;;;;;5090148;28;20092;-77
2022/01/17 01:07:05;;;;;;;21.35;3.95;;;5.30;99.90;;;;;;5072313;28;20550;-76
2022/01/17 01:09:37;;;;;;;20.77;5.47;;;5.30;99.90;;;;;;5089572;28;20075;-77
2022/01/17 01:12:03;;;;;;;30.13;5.32;;;5.30;99.90;;;;;;5054177;28;20040;-77
2022/01/17 01:14:29;;;;;;;26.83;5.13;;;5.20;99.90;;;;;;5054716;28;20479;-78
2022/01/17 01:16:56;;;;;;;20.42;3.92;;;5.30;99.90;;;;;;5071642;28;20054;-76
2022/01/17 01:19:39;;;;;;;23.20;3.50;;;5.30;99.90;;;;;;5089570;28;20343;-77
2022/01/17 01:30:00;;;;;;;20.20;2.85;;;5.10;99.90;;;;;;5089483;28;20437;-77
2022/01/17 01:32:34;;;;;;;23.15;3.90;;;5.10;99.90;;;;;;5089401;28;20044;-77
2022/01/17 01:35:01;;;;;;;27.58;5.15;;;5.10;99.90;;;;;;5089588;28;20047;-77
2022/01/17 01:37:27;;;;;;;26.13;3.88;;;5.00;99.90;;;;;;5089218;28;20615;-77
2022/01/17 01:39:54;;;;;;;23.50;4.38;;;4.90;99.90;;;;;;5089316;28;20449;-77
2022/01/17 01:42:21;;;;;;;17.98;3.60;;;4.90;99.90;;;;;;5088356;28;20039;-78
2022/01/17 01:44:52;;;;;;;19.85;2.97;;;4.90;99.90;;;;;;5088900;28;20425;-77
2022/01/17 01:47:26;;;;;;;21.80;4.38;;;4.80;99.90;;;;;;5070976;28;20101;-78
2022/01/17 01:49:52;;;;;;;17.20;3.80;;;4.80;99.90;;;;;;5071298;28;20055;-75
2022/01/17 01:52:18;;;;;;;22.50;4.80;;;4.80;99.90;;;;;;5070814;28;20165;-76
2022/01/17 01:54:44;;;;;;;22.35;5.25;;;4.70;99.90;;;;;;5070904;28;20048;-73
2022/01/17 01:57:10;;;;;;;24.30;4.70;;;4.70;99.90;;;;;;5088480;28;20047;-76
2022/01/17 01:59:37;;;;;;;24.00;4.43;;;4.70;99.90;;;;;;5070551;28;20040;-77
2022/01/17 02:02:04;;;;;;;30.05;5.28;;;4.70;99.90;;;;;;5070939;28;20060;-76
2022/01/17 02:04:30;;;;;;;16.38;3.38;;;4.60;99.90;;;;;;5088484;28;20040;-77
2022/01/17 02:06:56;;;;;;;25.58;7.35;;;4.70;99.90;;;;;;5088988;28;20050;-76
2022/01/17 02:09:23;;;;;;;17.95;3.90;;;4.60;99.90;;;;;;5070325;28;20071;-77
2022/01/17 02:11:50;;;;;;;23.67;3.85;;;4.60;99.90;;;;;;5087836;28;20126;-76
2022/01/17 02:14:16;;;;;;;25.27;6.45;;;4.60;99.90;;;;;;5070197;28;20128;-76
2022/01/17 02:16:44;;;;;;;26.38;3.72;;;4.50;99.90;;;;;;5089357;28;20127;-77
2022/01/17 02:19:10;;;;;;;18.27;2.80;;;4.50;99.90;;;;;;5070774;28;20048;-75
2022/01/17 02:21:48;;;;;;;25.55;5.85;;;4.60;99.90;;;;;;5088501;28;20119;-75
2022/01/17 02:24:16;;;;;;;47.20;7.13;;;4.60;99.90;;;;;;5088212;28;20085;-76
2022/01/17 02:26:43;;;;;;;20.35;5.10;;;4.60;99.90;;;;;;5087900;28;20440;-77
2022/01/17 02:29:09;;;;;;;21.05;5.28;;;4.60;99.90;;;;;;5070461;28;20101;-76
2022/01/17 02:31:35;;;;;;;22.60;4.13;;;4.60;99.90;;;;;;5088064;28;20040;-77
2022/01/17 02:34:03;;;;;;;29.77;4.30;;;4.60;99.90;;;;;;5070079;28;20040;-77
2022/01/17 02:36:29;;;;;;;34.60;4.72;;;4.60;99.90;;;;;;5088009;28;20135;-77
2022/01/17 02:38:54;;;;;;;37.95;6.03;;;4.60;99.90;;;;;;5087853;28;20043;-77
2022/01/17 02:41:20;;;;;;;25.27;4.72;;;4.60;99.90;;;;;;5068912;28;20070;-77
2022/01/17 02:43:47;;;;;;;21.98;4.63;;;4.60;99.90;;;;;;5088118;28;20054;-76
2022/01/17 02:48:41;;;;;;;17.63;5.25;;;4.60;99.90;;;;;;5070381;28;20064;-77
2022/01/17 02:51:08;;;;;;;24.80;4.82;;;4.60;99.90;;;;;;5088759;28;20378;-77
2022/01/17 02:53:34;;;;;;;39.50;4.57;;;4.70;99.90;;;;;;5069573;28;20063;-77
2022/01/17 02:56:04;;;;;;;26.65;6.18;;;4.70;99.90;;;;;;5087248;28;20115;-76
2022/01/17 02:58:34;;;;;;;25.17;5.30;;;4.80;99.90;;;;;;5087450;28;20122;-77
2022/01/17 03:01:01;;;;;;;;;;;4.80;99.90;;;;;;5070381;28;20286;-77
2022/01/17 03:03:29;;;;;;;21.58;5.18;;;4.70;99.90;;;;;;5087549;28;20092;-78
2022/01/17 03:05:58;;;;;;;30.70;6.03;;;4.70;99.90;;;;;;5087960;28;20032;-76
2022/01/17 03:08:26;;;;;;;22.47;3.33;;;4.70;99.90;;;;;;5087503;28;20035;-76
2022/01/17 03:10:53;;;;;;;23.95;5.35;;;4.80;99.90;;;;;;5086809;28;20048;-76
2022/01/17 03:13:21;;;;;;;22.25;5.03;;;4.80;99.90;;;;;;5087460;28;20040;-76
2022/01/17 03:15:55;;;;;;;25.02;4.00;;;4.80;99.90;;;;;;5088444;28;20036;-77
2022/01/17 03:18:21;;;;;;;16.90;3.92;;;4.70;99.90;;;;;;5087490;28;20058;-78
2022/01/17 03:20:47;;;;;;;23.70;6.38;;;4.70;99.90;;;;;;5087733;28;20078;-76
2022/01/17 03:23:13;;;;;;;16.65;3.28;;;4.70;99.90;;;;;;5087875;28;20076;-76
2022/01/17 03:25:38;;;;;;;26.00;4.78;;;4.70;99.90;;;;;;5087763;28;20046;-76
2022/01/17 03:28:04;;;;;;;35.20;5.80;;;4.70;99.90;;;;;;5068578;28;20074;-77
2022/01/17 03:30:33;;;;;;;19.92;4.53;;;4.70;99.90;;;;;;5069226;28;20460;-77
2022/01/17 03:33:03;;;;;;;32.97;4.95;;;4.70;99.90;;;;;;5087465;28;20044;-76
2022/01/17 03:35:29;;;;;;;;;;;4.80;99.90;;;;;;5069510;28;20052;-78
2022/01/17 03:37:55;;;;;;;17.23;3.63;;;4.80;99.90;;;;;;5087361;28;20323;-78
2022/01/17 03:40:21;;;;;;;19.25;3.25;;;4.80;99.90;;;;;;5087260;28;20047;-77
2022/01/17 03:42:47;;;;;;;19.52;4.13;;;4.90;99.90;;;;;;5069141;28;20131;-76
2022/01/17 03:45:12;;;;;;;18.75;4.13;;;4.90;99.90;;;;;;5088186;28;20094;-77
2022/01/17 03:47:40;;;;;;;27.20;4.95;;;5.00;99.90;;;;;;5069495;28;20047;-77
2022/01/17 03:50:10;;;;;;;13.02;3.22;;;5.10;99.90;;;;;;5087242;28;20064;-76
2022/01/17 03:52:37;;;;;;;;;;;5.10;99.90;;;;;;5073080;28;20043;-77
2022/01/17 03:55:02;;;;;;;25.35;4.40;;;5.10;99.90;;;;;;5091670;28;19985;-77
2022/01/17 03:57:28;;;;;;;28.55;4.68;;;5.10;99.90;;;;;;5090424;28;20067;-77
2022/01/17 03:59:54;;;;;;;19.10;2.90;;;5.10;99.90;;;;;;5073569;28;20611;-76
2022/01/17 04:02:19;;;;;;;41.90;5.28;;;5.10;99.90;;;;;;5057569;28;20100;-76
2022/01/17 04:04:45;;;;;;;26.35;3.78;;;5.10;99.90;;;;;;5074087;28;20048;-77
2022/01/17 04:07:10;;;;;;;15.95;3.47;;;5.10;99.90;;;;;;5091814;28;20461;-78
2022/01/17 04:09:36;;;;;;;22.98;3.15;;;5.20;99.90;;;;;;5073173;28;20051;-76
2022/01/17 04:12:02;;;;;;;17.05;4.80;;;5.30;99.90;;;;;;5073564;28;20056;-77
2022/01/17 04:14:27;;;;;;;19.02;3.20;;;5.20;99.90;;;;;;5091913;28;20036;-76
2022/01/17 04:16:53;;;;;;;18.80;3.45;;;5.30;99.90;;;;;;5092001;28;20251;-76
2022/01/17 04:19:19;;;;;;;13.88;3.75;;;5.30;99.90;;;;;;5090690;28;20032;-76
2022/01/17 04:21:47;;;;;;;14.10;4.07;;;5.30;99.90;;;;;;5090843;28;20051;-77
2022/01/17 04:24:13;;;;;;;25.58;4.43;;;5.30;99.90;;;;;;5091087;28;20076;-76
2022/01/17 04:26:39;;;;;;;15.82;2.63;;;5.30;99.90;;;;;;5090272;28;20039;-76
2022/01/17 04:29:05;;;;;;;21.10;3.58;;;5.40;99.90;;;;;;5090800;28;20040;-76
2022/01/17 04:31:31;;;;;;;22.30;4.20;;;5.40;99.90;;;;;;5090418;28;20335;-76
2022/01/17 04:33:57;;;;;;;14.93;2.92;;;5.40;99.90;;;;;;5090906;28;20044;-76
2022/01/17 04:36:23;;;;;;;14.52;2.88;;;5.40;99.90;;;;;;5090345;28;20428;-76
2022/01/17 04:38:48;;;;;;;19.15;5.50;;;5.50;99.90;;;;;;5090432;28;20079;-77
2022/01/17 04:41:17;;;;;;;20.23;4.53;;;5.40;99.90;;;;;;5089606;28;20123;-75
2022/01/17 04:45:07;;;;;;;27.23;5.78;;;5.50;99.90;;;;;;5090817;28;20636;-76
2022/01/17 04:46:29;;;;;;;30.25;5.25;;;5.60;99.90;;;;;;5068260;28;20052;-77
2022/01/17 04:48:54;;;;;;;28.95;6.13;;;5.70;99.90;;;;;;5068737;28;20037;-75
2022/01/17 04:51:20;;;;;;;20.27;4.15;;;5.60;99.90;;;;;;5068591;28;20036;-77
2022/01/17 04:54:03;;;;;;;18.23;3.67;;;5.70;99.90;;;;;;5069019;28;20045;-76
2022/01/17 04:56:28;;;;;;;19.60;4.43;;;5.60;99.90;;;;;;5067807;28;20052;-75
2022/01/17 04:58:54;;;;;;;18.23;4.15;;;5.70;99.90;;;;;;5068975;28;20392;-77
2022/01/17 05:01:19;;;;;;;24.63;3.30;;;5.70;99.90;;;;;;5068241;28;20036;-77
2022/01/17 05:03:45;;;;;;;15.18;4.72;;;5.70;99.90;;;;;;5050364;28;20093;-75
2022/01/17 05:06:10;;;;;;;21.15;6.43;;;5.70;99.90;;;;;;5069152;28;20480;-76
2022/01/17 05:08:36;;;;;;;24.27;5.80;;;5.80;99.90;;;;;;5068772;28;20048;-76
2022/01/17 05:11:02;;;;;;;17.48;4.65;;;5.80;99.90;;;;;;5067736;28;20411;-76
2022/01/17 05:13:33;;;;;;;14.77;3.75;;;5.80;99.90;;;;;;5050284;28;20037;-77
2022/01/17 05:16:12;;;;;;;24.85;4.53;;;5.80;99.90;;;;;;5050656;28;20052;-76
2022/01/17 05:21:04;;;;;;;26.65;5.00;;;5.80;99.90;;;;;;5050501;28;20518;-77
2022/01/17 05:23:29;;;;;;;27.00;5.60;;;5.80;99.90;;;;;;5050057;28;20434;-75
2022/01/17 05:25:55;;;;;;;17.13;5.10;;;5.80;99.90;;;;;;5049630;28;20044;-77
2022/01/17 05:28:20;;;;;;;31.58;5.68;;;5.80;99.90;;;;;;5068117;28;20041;-76
2022/01/17 05:30:46;;;;;;;31.95;5.47;;;5.90;99.90;;;;;;5068019;28;20086;-76
2022/01/17 05:33:11;;;;;;;29.23;6.13;;;5.80;99.90;;;;;;5068356;28;20033;-76
2022/01/17 05:35:37;;;;;;;24.15;5.15;;;5.90;99.90;;;;;;5067966;28;20052;-77
2022/01/17 05:38:03;;;;;;;29.65;6.97;;;5.90;99.90;;;;;;5068102;28;20201;-79
2022/01/17 05:40:29;;;;;;;18.55;3.58;;;5.90;99.90;;;;;;5049017;28;20639;-77
2022/01/17 05:42:54;;;;;;;27.55;7.32;;;6.00;99.90;;;;;;5068149;28;20090;-77
2022/01/17 05:45:20;;;;;;;35.70;6.30;;;5.90;99.90;;;;;;5042974;28;1068726;-77
2022/01/17 05:47:47;;;;;;;28.70;6.28;;;6.00;99.90;;;;;;5089255;28;20048;-77
2022/01/17 05:50:13;;;;;;;24.33;4.35;;;5.80;99.90;;;;;;5089452;28;20077;-75
2022/01/17 05:52:39;;;;;;;17.60;4.72;;;6.00;99.90;;;;;;5071187;28;20047;-77
2022/01/17 05:55:07;;;;;;;23.25;5.60;;;6.00;99.90;;;;;;5088974;28;20048;-78
2022/01/17 05:57:33;;;;;;;25.27;6.38;;;6.00;99.90;;;;;;5087756;28;20044;-77
2022/01/17 06:00:00;;;;;;;19.48;3.70;;;6.00;99.90;;;;;;5088653;28;20101;-76
2022/01/17 06:02:26;;;;;;;19.15;4.35;;;6.00;99.90;;;;;;5088710;28;20040;-76
2022/01/17 06:04:52;;;;;;;27.42;6.72;;;6.00;99.90;;;;;;5088836;28;20044;-77
2022/01/17 06:07:17;;;;;;;37.13;7.05;;;6.00;99.90;;;;;;5088531;28;20058;-75
2022/01/17 06:09:43;;;;;;;33.20;7.78;;;6.00;99.90;;;;;;5070781;28;20040;-75
2022/01/17 06:12:09;;;;;;;26.40;5.30;;;5.90;99.90;;;;;;5087946;28;20146;-75
2022/01/17 06:14:35;;;;;;;19.85;5.32;;;6.00;99.90;;;;;;5069115;28;20040;-75
2022/01/17 06:17:00;;;;;;;24.60;5.95;;;6.00;99.90;;;;;;5088730;28;20036;-76
2022/01/17 06:19:26;;;;;;;21.85;5.38;;;6.00;99.90;;;;;;5070113;28;20094;-75
2022/01/17 06:21:51;;;;;;;30.15;5.60;;;5.90;99.90;;;;;;5070466;28;20044;-75
2022/01/17 06:24:17;;;;;;;27.13;6.25;;;5.90;99.90;;;;;;5088052;28;20585;-76
2022/01/17 06:26:44;;;;;;;33.63;5.85;;;5.90;99.90;;;;;;5069684;28;20044;-75
2022/01/17 06:29:12;;;;;;;25.67;5.32;;;5.90;99.90;;;;;;5088415;28;20119;-74
2022/01/17 06:31:39;;;;;;;17.88;5.90;;;6.00;99.90;;;;;;5088089;28;20055;-76
2022/01/17 06:34:05;;;;;;;26.80;6.40;;;5.90;99.90;;;;;;5088116;28;20095;-77
2022/01/17 06:36:31;;;;;;;28.55;6.30;;;6.00;99.90;;;;;;5088097;28;20036;-77
2022/01/17 06:38:56;;;;;;;36.40;7.72;;;6.00;99.90;;;;;;5088409;28;20591;-77
2022/01/17 06:41:22;;;;;;;33.78;7.60;;;5.90;99.90;;;;;;5086763;28;20040;-76
2022/01/17 06:43:48;;;;;;;23.92;4.63;;;5.90;99.90;;;;;;5069829;28;20154;-76
2022/01/17 06:46:14;;;;;;;24.70;6.97;;;5.90;99.90;;;;;;5087516;28;20036;-77
2022/01/17 06:48:41;;;;;;;36.10;6.13;;;5.90;99.90;;;;;;5088451;28;20046;-77
2022/01/17 06:51:07;;;;;;;26.85;6.78;;;6.00;99.90;;;;;;5088023;28;20135;-74
2022/01/17 06:53:33;;;;;;;27.90;5.68;;;6.00;99.90;;;;;;5069383;28;20048;-76
2022/01/17 06:56:00;;;;;;;55.03;8.88;;;6.10;99.90;;;;;;5069058;28;20051;-75
2022/01/17 06:58:27;;;;;;;43.20;6.15;;;6.10;99.90;;;;;;5069592;28;20089;-76
2022/01/17 07:00:52;;;;;;;36.03;5.32;;;6.00;99.90;;;;;;5069569;28;20044;-76
2022/01/17 07:03:18;;;;;;;30.67;5.45;;;6.10;99.90;;;;;;5087576;28;20121;-76
2022/01/17 07:05:44;;;;;;;32.35;5.43;;;6.00;99.90;;;;;;5087750;28;20052;-74
2022/01/17 07:08:09;;;;;;;23.02;5.28;;;6.00;99.90;;;;;;5087906;28;20166;-74
2022/01/17 07:10:35;;;;;;;27.10;6.22;;;6.10;99.90;;;;;;5086742;28;20089;-76
2022/01/17 07:13:01;;;;;;;44.67;7.68;;;6.10;99.90;;;;;;5087349;28;20040;-74
2022/01/17 07:15:26;;;;;;;41.20;9.13;;;6.00;99.90;;;;;;5069102;28;20086;-74
2022/01/17 07:17:52;;;;;;;51.30;8.27;;;6.10;99.90;;;;;;5069135;28;20050;-74
2022/01/17 07:20:18;;;;;;;40.35;7.03;;;6.10;99.90;;;;;;5087090;28;20035;-75
2022/01/17 07:22:43;;;;;;;35.75;7.93;;;6.10;99.90;;;;;;5069774;28;20438;-72
2022/01/17 07:25:09;;;;;;;33.38;6.85;;;6.10;99.90;;;;;;5068618;28;20073;-73
2022/01/17 07:27:36;;;;;;;42.75;6.25;;;6.10;99.90;;;;;;5069226;28;20048;-74
2022/01/17 07:30:06;;;;;;;39.95;8.30;;;6.10;99.90;;;;;;5069015;28;20090;-74
2022/01/17 07:32:32;;;;;;;56.03;9.50;;;6.10;99.90;;;;;;5052381;28;20051;-74
2022/01/17 07:34:58;;;;;;;33.65;7.57;;;6.10;99.90;;;;;;5068890;28;20036;-74
2022/01/17 07:37:23;;;;;;;31.30;6.55;;;6.20;99.90;;;;;;5068930;28;20120;-74
2022/01/17 07:39:49;;;;;;;25.55;6.05;;;6.20;99.90;;;;;;5069132;28;20510;-74
2022/01/17 07:42:15;;;;;;;31.52;6.43;;;6.10;99.90;;;;;;5085978;28;20039;-74
2022/01/17 07:44:43;;;;;;;44.95;11.10;;;6.20;99.90;;;;;;5087302;28;20059;-74
2022/01/17 07:47:16;;;;;;;41.05;7.95;;;6.30;99.90;;;;;;5087418;28;20048;-74
2022/01/17 07:49:44;;;;;;;32.58;7.60;;;6.30;99.90;;;;;;5069262;28;20059;-74
2022/01/17 07:52:11;;;;;;;46.53;7.97;;;6.30;99.90;;;;;;5087216;28;20150;-74
2022/01/17 07:54:43;;;;;;;56.80;9.05;;;6.30;99.90;;;;;;5068300;28;20047;-75
2022/01/17 07:57:10;;;;;;;32.80;6.78;;;6.30;99.90;;;;;;5068202;28;20508;-74
2022/01/17 07:59:35;;;;;;;35.17;6.43;;;6.30;99.90;;;;;;5068423;28;20052;-75
2022/01/17 08:02:01;;;;;;;37.28;7.68;;;6.40;99.90;;;;;;5069017;28;20390;-75
2022/01/17 08:04:27;;;;;;;39.55;9.93;;;6.50;99.90;;;;;;5086459;28;20040;-75
2022/01/17 08:06:53;;;;;;;21.60;6.28;;;6.50;99.90;;;;;;5068586;28;20047;-75
2022/01/17 08:09:25;;;;;;;48.72;8.75;;;6.60;99.90;;;;;;5086553;28;20059;-75
2022/01/17 08:11:51;;;;;;;34.63;7.88;;;6.60;99.90;;;;;;5085689;28;20051;-76
2022/01/17 08:14:16;;;;;;;26.58;6.55;;;6.60;99.90;;;;;;5086347;28;20052;-75
2022/01/17 08:16:42;;;;;;;41.90;8.60;;;6.70;99.90;;;;;;5068772;28;20064;-75
2022/01/17 08:19:08;;;;;;;39.78;7.50;;;6.70;99.90;;;;;;5068636;28;20051;-74
2022/01/17 08:21:33;;;;;;;38.05;7.90;;;6.70;99.90;;;;;;5051272;28;20098;-75
2022/01/17 08:24:00;;;;;;;35.20;6.72;;;6.70;99.90;;;;;;5068643;28;20048;-75
2022/01/17 08:26:26;;;;;;;35.53;6.22;;;6.70;99.90;;;;;;5067337;28;20080;-75
2022/01/17 08:28:52;;;;;;;34.88;5.72;;;6.80;99.90;;;;;;5086556;28;20086;-75
2022/01/17 08:31:18;;;;;;;26.75;6.53;;;6.80;99.90;;;;;;5086241;28;20040;-74
2022/01/17 08:33:44;;;;;;;36.83;5.80;;;6.80;99.90;;;;;;5068011;28;20044;-75
2022/01/17 08:36:11;;;;;;;32.95;7.88;;;6.80;99.90;;;;;;5068515;28;20044;-74
2022/01/17 08:38:38;;;;;;;51.83;8.57;;;6.90;99.90;;;;;;5089539;28;20039;-75
2022/01/17 08:41:04;;;;;;;34.35;6.80;;;7.00;99.90;;;;;;5071038;28;20553;-76
2022/01/17 08:43:29;;;;;;;45.80;8.35;;;7.10;99.90;;;;;;5071916;28;20040;-76
2022/01/17 08:45:55;;;;;;;23.23;6.28;;;7.10;99.90;;;;;;5071906;28;20539;-75
2022/01/17 08:48:21;;;;;;;32.92;4.97;;;7.10;99.90;;;;;;5089664;28;20048;-75
2022/01/17 08:50:47;;;;;;;31.17;4.78;;;7.20;99.90;;;;;;5089987;28;20040;-75
2022/01/17 08:53:14;;;;;;;31.92;7.10;;;7.30;99.90;;;;;;5090229;28;20171;-75
2022/01/17 08:55:42;;;;;;;26.13;5.65;;;7.30;99.90;;;;;;5071084;28;20495;-75
2022/01/17 08:58:09;;;;;;;52.70;9.85;;;7.40;99.90;;;;;;5071698;28;20048;-76
2022/01/17 09:00:35;;;;;;;47.85;9.52;;;7.40;99.90;;;;;;5071322;28;20039;-75
2022/01/17 09:03:01;;;;;;;32.65;5.43;;;7.50;99.90;;;;;;5071609;28;20085;-73
2022/01/17 09:05:28;;;;;;;35.42;6.88;;;7.50;99.90;;;;;;5071431;28;20040;-74
2022/01/17 09:07:54;;;;;;;33.20;7.07;;;7.50;99.90;;;;;;5089917;28;20136;-75
2022/01/17 09:10:20;;;;;;;29.52;5.45;;;7.60;99.90;;;;;;5070521;28;20072;-74
2022/01/17 09:12:45;;;;;;;49.47;9.63;;;7.60;99.90;;;;;;5089675;28;20497;-74
2022/01/17 09:15:11;;;;;;;32.53;5.72;;;7.70;99.90;;;;;;5071764;28;20044;-75
2022/01/17 09:17:37;;;;;;;31.85;7.03;;;7.70;99.90;;;;;;5071071;28;20081;-76
2022/01/17 09:20:04;;;;;;;36.45;6.78;;;7.70;99.90;;;;;;5089396;28;20058;-73
2022/01/17 09:22:30;;;;;;;29.15;7.07;;;7.80;99.90;;;;;;5070860;28;20044;-75
2022/01/17 09:24:56;;;;;;;30.55;5.97;;;7.80;99.90;;;;;;5088369;28;20044;-76
2022/01/17 09:27:21;;;;;;;30.60;6.15;;;7.90;99.90;;;;;;5089171;28;20033;-75
2022/01/17 09:29:47;;;;;;;36.13;7.47;;;7.90;99.90;;;;;;5089179;28;20036;-74
2022/01/17 09:32:14;;;;;;;29.90;5.57;;;7.90;99.90;;;;;;5071379;28;20048;-75
2022/01/17 09:34:42;;;;;;;40.83;8.32;;;7.90;99.90;;;;;;5071219;28;20119;-76
2022/01/17 09:37:09;;;;;;;50.13;8.07;;;7.90;99.90;;;;;;5089345;28;20032;-76
2022/01/17 09:39:37;;;;;;;55.67;8.55;;;7.80;99.90;;;;;;5070872;28;20090;-76
2022/01/17 09:42:08;;;;;;;39.75;5.45;;;7.90;99.90;;;;;;5070460;28;20394;-74
2022/01/17 09:44:34;;;;;;;34.38;8.25;;;7.90;99.90;;;;;;5070452;28;20271;-77
2022/01/17 09:47:04;;;;;;;33.53;8.65;;;8.00;99.90;;;;;;5071219;28;20048;-76
2022/01/17 09:49:36;;;;;;;45.03;7.72;;;8.10;99.90;;;;;;5052758;28;20131;-75
2022/01/17 09:52:13;;;;;;;49.42;9.75;;;8.20;99.90;;;;;;5071141;28;20048;-75
2022/01/17 09:54:41;;;;;;;38.30;9.50;;;8.30;99.90;;;;;;5070944;28;20052;-76
2022/01/17 09:57:07;;;;;;;37.97;6.80;;;8.30;99.90;;;;;;5070009;28;20127;-75
2022/01/17 09:59:35;;;;;;;43.95;8.68;;;8.40;99.90;;;;;;5070309;28;20056;-75
2022/01/17 10:02:01;;;;;;;28.55;5.40;;;8.40;99.90;;;;;;5089302;28;20048;-77
2022/01/17 10:04:26;;;;;;;30.98;6.85;;;8.40;99.90;;;;;;5070192;28;20100;-75
2022/01/17 10:06:58;;;;;;;44.60;9.82;;;8.40;99.90;;;;;;5088735;28;20040;-76
2022/01/17 10:09:25;;;;;;;37.47;8.40;;;8.50;99.90;;;;;;5088331;28;20086;-76
2022/01/17 10:12:11;;;;;;;38.75;8.85;;;8.50;99.90;;;;;;5069518;28;20363;-74
2022/01/17 10:15:03;;;;;;;39.60;7.88;;;8.50;99.90;;;;;;5088185;28;20044;-74
2022/01/17 10:17:46;;;;;;;37.08;7.53;;;8.60;99.90;;;;;;5088237;28;20089;-75
2022/01/17 10:20:15;;;;;;;40.50;7.15;;;8.50;99.90;;;;;;5088430;28;20075;-75
2022/01/17 10:22:52;;;;;;;36.80;7.35;;;8.50;99.90;;;;;;5070547;28;20040;-75
2022/01/17 10:36:01;;;;;;;35.55;7.70;;;8.70;99.90;;;;;;5028924;28;20053;-76
2022/01/17 10:38:27;;;;;;;50.88;11.90;;;8.70;99.90;;;;;;5070124;28;20545;-75
2022/01/17 10:41:02;;;;;;;40.28;8.52;;;8.80;99.90;;;;;;5069200;28;20181;-76
2022/01/17 10:43:38;;;;;;;42.45;7.45;;;8.80;99.90;;;;;;5087592;28;20089;-75
2022/01/17 10:46:06;;;;;;;37.22;6.80;;;8.80;99.90;;;;;;5087961;28;20060;-76
2022/01/17 10:48:39;;;;;;;46.33;7.63;;;8.90;99.90;;;;;;5069444;28;20131;-74
2022/01/17 10:51:07;;;;;;;50.60;9.50;;;8.80;99.90;;;;;;5069728;28;20048;-75
2022/01/17 10:53:33;;;;;;;50.67;9.63;;;8.70;99.90;;;;;;5069108;28;20397;-74
2022/01/17 10:56:05;;;;;;;49.35;9.82;;;8.80;99.90;;;;;;5086632;28;20479;-74
2022/01/17 10:58:32;;;;;;;39.15;9.15;;;8.80;99.90;;;;;;5069196;28;20478;-75
2022/01/17 11:01:04;;;;;;;45.38;8.73;;;8.80;99.90;;;;;;5087053;28;20123;-75
2022/01/17 11:03:33;;;;;;;34.22;7.55;;;8.90;99.90;;;;;;5069177;28;20036;-75
2022/01/17 11:06:03;;;;;;;43.47;8.77;;;8.90;99.90;;;;;;5087604;28;20055;-75
2022/01/17 11:08:32;;;;;;;48.53;8.60;;;8.90;99.90;;;;;;5069076;28;20048;-76
2022/01/17 11:10:59;;;;;;;51.50;10.10;;;8.80;99.90;;;;;;5086605;28;20040;-75
2022/01/17 11:13:29;;;;;;;39.28;7.88;;;8.80;99.90;;;;;;5068966;28;20047;-75
2022/01/17 11:15:57;;;;;;;49.58;11.82;;;8.90;99.90;;;;;;5087362;28;20047;-76
2022/01/17 11:18:26;;;;;;;48.63;12.82;;;8.90;99.90;;;;;;5087137;28;20044;-76
2022/01/17 11:21:00;;;;;;;48.58;10.55;;;8.90;99.90;;;;;;5087634;28;20133;-76
2022/01/17 11:23:27;;;;;;;39.10;7.10;;;9.00;99.90;;;;;;5087410;28;20040;-75
2022/01/17 11:25:56;;;;;;;53.00;8.20;;;9.10;99.90;;;;;;5086003;28;20039;-77
2022/01/17 11:28:28;;;;;;;34.28;7.47;;;9.00;99.90;;;;;;5086815;28;20040;-75
2022/01/17 11:30:58;;;;;;;46.53;10.10;;;9.10;99.90;;;;;;5069382;28;20062;-77
2022/01/17 11:33:24;;;;;;;30.77;7.88;;;9.10;99.90;;;;;;5086909;28;20044;-75
2022/01/17 11:35:53;;;;;;;43.33;8.13;;;9.10;99.90;;;;;;5087252;28;20044;-76
2022/01/17 11:38:28;;;;;;;61.90;14.43;;;9.10;99.90;;;;;;5068835;28;20432;-76
2022/01/17 11:40:55;;;;;;;49.92;10.48;;;9.20;99.90;;;;;;5067929;28;20048;-74
2022/01/17 11:43:35;;;;;;;36.60;7.45;;;9.20;99.90;;;;;;5086775;28;20047;-75
2022/01/17 11:46:19;;;;;;;55.17;9.15;;;9.30;99.90;;;;;;5086946;28;20131;-75
2022/01/17 11:48:51;;;;;;;48.47;9.85;;;9.20;99.90;;;;;;5068639;28;20059;-75
2022/01/17 11:51:17;;;;;;;44.60;7.78;;;9.30;99.90;;;;;;5086705;28;20036;-75
2022/01/17 11:53:55;;;;;;;61.35;11.00;;;9.30;99.90;;;;;;5087015;28;20340;-76
2022/01/17 11:56:51;;;;;;;63.08;9.40;;;9.20;99.90;;;;;;5067685;28;20100;-76
2022/01/17 11:59:37;;;;;;;41.75;10.02;;;9.20;99.90;;;;;;5086773;28;20453;-76
2022/01/17 12:02:23;;;;;;;48.10;10.80;;;9.40;99.90;;;;;;5068836;28;20051;-74
2022/01/17 12:05:04;;;;;;;73.75;14.90;;;9.40;99.90;;;;;;5086885;28;20140;-77
2022/01/17 12:07:45;;;;;;;56.00;10.80;;;9.40;99.90;;;;;;5086747;28;20097;-75
2022/01/17 12:10:15;;;;;;;;;;;9.20;99.90;;;;;;5086703;28;20093;-76
2022/01/17 12:12:41;;;;;;;37.20;10.27;;;9.30;99.90;;;;;;5089114;28;20282;-77
2022/01/17 12:15:17;;;;;;;46.35;8.88;;;9.20;99.90;;;;;;5090958;28;20067;-76
2022/01/17 12:17:44;;;;;;;54.30;10.85;;;9.30;99.90;;;;;;5091199;28;20514;-74
2022/01/17 12:20:09;;;;;;;46.13;11.82;;;9.30;99.90;;;;;;5091032;28;20119;-78
2022/01/17 12:22:38;;;;;;;43.95;7.25;;;9.20;99.90;;;;;;5072535;28;20493;-76
2022/01/17 12:25:24;;;;;;;57.38;11.63;;;9.30;99.90;;;;;;5089967;28;20096;-76
2022/01/17 12:28:12;;;;;;;39.90;9.82;;;9.40;99.90;;;;;;5090483;28;20370;-76
2022/01/17 12:30:47;;;;;;;51.03;10.50;;;9.40;99.90;;;;;;5090168;28;20051;-77
2022/01/17 12:33:28;;;;;;;47.38;8.27;;;9.30;99.90;;;;;;5090838;28;20131;-76
2022/01/17 12:35:55;;;;;;;60.13;11.75;;;9.20;99.90;;;;;;5090814;28;20505;-75
2022/01/17 12:38:37;;;;;;;40.10;8.38;;;9.30;99.90;;;;;;5090334;28;20490;-77
2022/01/17 12:41:03;;;;;;;39.38;8.70;;;9.40;99.90;;;;;;5071569;28;20048;-76
2022/01/17 12:43:32;;;;;;;49.03;10.55;;;9.40;99.90;;;;;;5071925;28;20040;-76
2022/01/17 12:46:07;;;;;;;42.20;10.35;;;9.50;99.90;;;;;;5072037;28;20083;-75
2022/01/17 12:48:36;;;;;;;58.92;11.38;;;9.50;99.90;;;;;;5071907;28;20059;-77
2022/01/17 12:51:07;;;;;;;39.28;9.07;;;9.50;99.90;;;;;;5090630;28;20481;-78
2022/01/17 12:53:33;;;;;;;46.28;10.68;;;9.40;99.90;;;;;;5072127;28;20048;-77
2022/01/17 12:56:01;;;;;;;49.42;10.98;;;9.40;99.90;;;;;;5089316;28;20393;-78
2022/01/17 12:58:32;;;;;;;59.67;13.40;;;9.30;99.90;;;;;;5089849;28;20044;-76
2022/01/17 13:01:07;;;;;;;57.88;11.40;;;9.30;99.90;;;;;;5090283;28;20048;-76
2022/01/17 13:03:36;;;;;;;70.53;13.45;;;9.20;99.90;;;;;;5089641;28;20040;-77
2022/01/17 13:06:07;;;;;;;48.65;7.57;;;9.20;99.90;;;;;;5071648;28;20040;-76
2022/01/17 13:08:33;;;;;;;47.17;9.88;;;9.30;99.90;;;;;;5089617;28;20517;-77
2022/01/17 13:11:00;;;;;;;61.38;15.07;;;9.20;99.90;;;;;;5054032;28;20499;-76
2022/01/17 13:13:26;;;;;;;44.58;10.45;;;9.20;99.90;;;;;;5090020;28;20048;-76
2022/01/17 13:15:57;;;;;;;60.83;11.05;;;9.30;99.90;;;;;;5090113;28;20085;-77